createdAt,value
2019-03-01T00:01:23.975Z,100311.47
2019-03-01T00:03:55.329Z,100313.53
2019-03-01T00:06:28.116Z,100319.88
2019-03-01T00:09:32.561Z,100317.22
2019-03-01T00:12:14.862Z,100308.13
2019-03-01T00:15:11.486Z,100308.67
2019-03-01T00:18:06.118Z,100300.87
2019-03-01T00:20:55.141Z,100301.84
2019-03-01T00:23:51.607Z,100301.64
2019-03-01T00:26:34.608Z,100295.82
2019-03-01T00:29:27.987Z,100297.27
2019-03-01T00:32:21.238Z,100288.45
2019-03-01T00:34:57.089Z,100287.88
2019-03-01T00:37:58.562Z,100287.83
2019-03-01T00:40:51.151Z,100287.22
2019-03-01T00:43:45.826Z,100289.04
2019-03-01T00:46:12.554Z,100291.64
2019-03-01T00:48:39.305Z,100289.77
2019-03-01T00:51:06.043Z,100284.53
2019-03-01T00:53:32.772Z,100279.00
2019-03-01T00:55:59.627Z,100283.16
2019-03-01T00:58:26.337Z,100283.59
2019-03-01T01:00:53.076Z,100276.40
2019-03-01T01:03:19.801Z,100277.68
2019-03-01T01:05:46.521Z,100271.45
2019-03-01T01:08:13.266Z,100270.59
2019-03-01T01:10:39.983Z,100269.23
2019-03-01T01:13:06.730Z,100259.62
2019-03-01T01:15:33.450Z,100257.64
2019-03-01T01:18:00.178Z,100257.09
2019-03-01T01:20:27.141Z,100248.76
2019-03-01T01:22:53.860Z,100242.08
2019-03-01T01:25:20.718Z,100239.67
2019-03-01T01:27:47.455Z,100235.02
2019-03-01T01:30:14.195Z,100228.89
2019-03-01T01:32:40.938Z,100223.70
2019-03-01T01:35:07.668Z,100217.11
2019-03-01T01:37:34.458Z,100219.71
2019-03-01T01:40:01.177Z,100218.36
2019-03-01T01:42:27.922Z,100205.62
2019-03-01T01:44:54.647Z,100201.98
2019-03-01T01:47:21.395Z,100207.30
2019-03-01T01:49:48.102Z,100203.55
2019-03-01T01:52:14.848Z,100203.30
2019-03-01T01:54:41.579Z,100201.25
2019-03-01T01:57:08.310Z,100197.44
2019-03-01T01:59:35.058Z,100192.46
2019-03-01T02:02:01.797Z,100199.23
2019-03-01T02:04:28.505Z,100195.86
2019-03-01T02:06:55.242Z,100196.78
2019-03-01T02:09:23.706Z,100200.87
2019-03-01T02:11:50.439Z,100201.28
2019-03-01T02:14:17.175Z,100197.83
2019-03-01T02:16:43.883Z,100201.00
2019-03-01T02:19:10.626Z,100200.63
2019-03-01T02:21:37.362Z,100195.69
2019-03-01T02:24:04.115Z,100198.09
2019-03-01T02:26:30.840Z,100188.20
2019-03-01T02:28:57.577Z,100182.86
2019-03-01T02:31:24.302Z,100179.16
2019-03-01T02:33:51.061Z,100175.26
2019-03-01T02:36:17.763Z,100172.97
2019-03-01T02:38:44.535Z,100171.34
2019-03-01T02:41:11.465Z,100168.56
2019-03-01T02:43:38.204Z,100157.58
2019-03-01T02:46:04.934Z,100156.95
2019-03-01T02:48:31.658Z,100148.78
2019-03-01T02:50:58.379Z,100144.85
2019-03-01T02:53:25.119Z,100147.58
2019-03-01T02:55:51.829Z,100149.23
2019-03-01T02:58:18.564Z,100146.97
2019-03-01T03:00:45.300Z,100143.92
2019-03-01T03:03:12.032Z,100132.81
2019-03-01T03:05:54.096Z,100133.55
2019-03-01T03:08:20.827Z,100126.34
2019-03-01T03:10:47.554Z,100125.70
2019-03-01T03:13:14.295Z,100113.02
2019-03-01T03:15:43.000Z,100108.45
2019-03-01T03:18:09.743Z,100103.61
2019-03-01T03:20:36.462Z,100112.25
2019-03-01T03:23:03.219Z,100116.61
2019-03-01T03:25:29.948Z,100115.48
2019-03-01T03:27:56.682Z,100108.50
2019-03-01T03:30:23.433Z,100100.03
2019-03-01T03:32:50.124Z,100101.65
2019-03-01T03:35:16.993Z,100098.83
2019-03-01T03:37:43.714Z,100099.58
2019-03-01T03:40:10.500Z,100100.39
2019-03-01T03:42:37.223Z,100092.48
2019-03-01T03:45:04.502Z,100093.92
2019-03-01T03:47:31.247Z,100087.52
2019-03-01T03:49:57.978Z,100084.33
2019-03-01T03:52:24.711Z,100085.63
2019-03-01T03:54:51.438Z,100072.19
2019-03-01T03:57:18.152Z,100080.78
2019-03-01T03:59:44.989Z,100077.63
2019-03-01T04:02:11.706Z,100069.34
2019-03-01T04:04:38.447Z,100067.05
2019-03-01T04:07:05.210Z,100060.63
2019-03-01T04:09:31.898Z,100060.48
2019-03-01T04:11:58.618Z,100064.94
2019-03-01T04:14:25.403Z,100058.80
2019-03-01T04:16:52.102Z,100053.97
2019-03-01T04:19:18.846Z,100049.14
2019-03-01T04:21:46.563Z,100048.42
2019-03-01T04:24:13.318Z,100047.95
2019-03-01T04:26:40.043Z,100043.76
2019-03-01T04:29:06.792Z,100042.46
2019-03-01T04:31:33.518Z,100039.20
2019-03-01T04:34:00.245Z,100042.73
2019-03-01T04:36:26.970Z,100041.89
2019-03-01T04:38:53.722Z,100038.91
2019-03-01T04:41:20.439Z,100038.52
2019-03-01T04:43:47.209Z,100037.89
2019-03-01T04:46:13.913Z,100031.19
2019-03-01T04:48:40.622Z,100024.48
2019-03-01T04:51:07.370Z,100021.14
2019-03-01T04:53:34.089Z,100015.31
2019-03-01T04:56:00.818Z,100011.38
2019-03-01T04:58:27.558Z,100009.69
2019-03-01T05:00:54.290Z,100006.31
2019-03-01T05:03:21.050Z,100010.16
2019-03-01T05:05:47.777Z,100015.36
2019-03-01T05:08:14.523Z,100009.83
2019-03-01T05:10:41.242Z,100012.42
2019-03-01T05:13:07.982Z,100010.42
2019-03-01T05:15:34.705Z,100005.27
2019-03-01T05:18:01.454Z,100010.13
2019-03-01T05:20:30.508Z,100009.05
2019-03-01T05:22:54.918Z,100006.70
2019-03-01T05:25:21.632Z,100013.89
2019-03-01T05:27:48.459Z,100010.89
2019-03-01T05:30:15.195Z,100004.52
2019-03-01T05:32:41.937Z,100008.42
2019-03-01T05:35:08.678Z,100014.87
2019-03-01T05:37:35.430Z,100014.05
2019-03-01T05:40:02.151Z,100008.36
2019-03-01T05:42:28.894Z,100012.75
2019-03-01T05:44:55.610Z,100002.08
2019-03-01T05:47:22.366Z,100007.88
2019-03-01T05:49:49.110Z,100010.80
2019-03-01T05:52:15.855Z,100010.20
2019-03-01T05:54:42.590Z,100004.30
2019-03-01T05:57:09.334Z,100011.31
2019-03-01T05:59:36.071Z,100010.94
2019-03-01T06:02:23.934Z,100015.91
2019-03-01T06:04:54.902Z,100006.30
2019-03-01T06:07:58.154Z,100005.00
2019-03-01T06:10:35.481Z,100005.81
2019-03-01T06:13:34.485Z,100002.95
2019-03-01T06:16:16.473Z,100002.36
2019-03-01T06:19:11.331Z,100000.56
2019-03-01T06:21:51.022Z,100003.31
2019-03-01T06:24:30.302Z,100004.72
2019-03-01T06:27:18.418Z,100006.63
2019-03-01T06:30:08.202Z,100008.57
2019-03-01T06:32:48.766Z,100009.42
2019-03-01T06:35:32.534Z,100006.33
2019-03-01T06:39:00.666Z,100004.78
2019-03-01T06:41:53.921Z,100010.39
2019-03-01T06:44:31.168Z,100009.72
2019-03-01T06:47:07.270Z,100004.16
2019-03-01T06:49:39.798Z,100000.18
2019-03-01T06:52:06.530Z,100010.92
2019-03-01T06:54:33.269Z,100013.36
2019-03-01T06:57:00.106Z,100010.13
2019-03-01T06:59:26.859Z,100008.87
2019-03-01T07:01:53.586Z,100006.98
2019-03-01T07:04:21.020Z,100009.42
2019-03-01T07:06:47.729Z,100011.16
2019-03-01T07:09:14.483Z,100006.10
2019-03-01T07:11:41.195Z,100009.91
2019-03-01T07:14:07.946Z,100011.20
2019-03-01T07:16:34.655Z,100015.00
2019-03-01T07:19:01.414Z,100018.97
2019-03-01T07:21:28.130Z,100011.48
2019-03-01T07:23:54.932Z,100017.93
2019-03-01T07:26:21.602Z,100020.29
2019-03-01T07:28:48.346Z,100015.25
2019-03-01T07:31:15.075Z,100013.58
2019-03-01T07:33:41.818Z,100006.36
2019-03-01T07:36:08.530Z,100011.69
2019-03-01T07:38:35.270Z,100017.13
2019-03-01T07:41:01.986Z,100007.87
2019-03-01T07:43:28.739Z,100005.42
2019-03-01T07:45:55.458Z,100007.31
2019-03-01T07:48:22.206Z,100003.11
2019-03-01T07:50:48.950Z,100008.75
2019-03-01T07:53:15.693Z,100006.58
2019-03-01T07:55:44.016Z,100008.94
2019-03-01T07:58:09.127Z,100008.12
2019-03-01T08:00:35.862Z,100014.33
2019-03-01T08:03:02.589Z,100006.35
2019-03-01T08:05:29.335Z,100015.56
2019-03-01T08:07:59.664Z,100011.82
2019-03-01T08:10:23.372Z,100017.17
2019-03-01T08:12:49.514Z,100017.79
2019-03-01T08:15:16.265Z,100016.92
2019-03-01T08:17:43.031Z,100018.61
2019-03-01T08:20:11.721Z,100012.50
2019-03-01T08:22:48.129Z,100014.42
2019-03-01T08:25:06.121Z,100014.22
2019-03-01T08:27:32.831Z,100008.76
2019-03-01T08:29:59.566Z,100007.94
2019-03-01T08:32:27.367Z,100009.72
2019-03-01T08:34:53.760Z,100012.50
2019-03-01T08:37:19.771Z,100017.98
2019-03-01T08:39:46.567Z,100014.52
2019-03-01T08:42:13.283Z,100017.48
2019-03-01T08:44:40.022Z,100021.09
2019-03-01T08:47:06.778Z,100018.75
2019-03-01T08:49:33.543Z,100020.00
2019-03-01T08:52:01.525Z,100024.54
2019-03-01T08:54:27.641Z,100016.98
2019-03-01T08:56:53.738Z,100025.55
2019-03-01T08:59:20.481Z,100024.33
2019-03-01T09:01:47.194Z,100034.08
2019-03-01T09:04:17.337Z,100039.63
2019-03-01T09:06:41.721Z,100042.17
2019-03-01T09:09:08.688Z,100047.75
2019-03-01T09:11:34.241Z,100046.45
2019-03-01T09:14:00.982Z,100049.72
2019-03-01T09:16:27.709Z,100048.98
2019-03-01T09:18:54.466Z,100051.95
2019-03-01T09:21:21.188Z,100053.64
2019-03-01T09:23:51.107Z,100051.45
2019-03-01T09:26:16.738Z,100052.78
2019-03-01T09:28:41.373Z,100056.28
2019-03-01T09:31:08.111Z,100057.30
2019-03-01T09:33:34.838Z,100049.94
2019-03-01T09:36:07.606Z,100057.73
2019-03-01T09:38:34.318Z,100056.34
2019-03-01T09:41:04.079Z,100061.00
2019-03-01T09:43:28.535Z,100065.66
2019-03-01T09:45:54.579Z,100065.95
2019-03-01T09:48:21.286Z,100066.95
2019-03-01T09:50:48.030Z,100056.66
2019-03-01T09:53:14.801Z,100055.35
2019-03-01T09:55:41.530Z,100055.80
2019-03-01T09:58:08.620Z,100054.76
2019-03-01T10:00:35.624Z,100055.98
2019-03-01T10:03:02.363Z,100057.77
2019-03-01T10:05:29.102Z,100062.25
2019-03-01T10:07:55.818Z,100054.91
2019-03-01T10:10:24.630Z,100065.52
2019-03-01T10:12:51.352Z,100062.64
2019-03-01T10:15:18.091Z,100065.67
2019-03-01T10:17:44.814Z,100061.20
2019-03-01T10:20:11.606Z,100067.00
2019-03-01T10:22:38.322Z,100066.45
2019-03-01T10:25:05.533Z,100072.11
2019-03-01T10:27:32.249Z,100073.98
2019-03-01T10:29:58.970Z,100079.91
2019-03-01T10:32:25.702Z,100082.36
2019-03-01T10:34:52.410Z,100081.03
2019-03-01T10:37:19.681Z,100091.34
2019-03-01T10:39:52.810Z,100093.19
2019-03-01T10:42:13.146Z,100098.75
2019-03-01T10:44:39.862Z,100098.83
2019-03-01T10:47:06.586Z,100097.91
2019-03-01T10:49:33.308Z,100103.06
2019-03-01T10:52:00.042Z,100098.34
2019-03-01T10:54:26.760Z,100108.72
2019-03-01T10:56:53.486Z,100106.27
2019-03-01T10:59:20.210Z,100108.11
2019-03-01T11:01:46.946Z,100109.49
2019-03-01T11:04:13.666Z,100109.80
2019-03-01T11:06:40.414Z,100104.80
2019-03-01T11:09:07.170Z,100107.84
2019-03-01T11:11:34.028Z,100113.75
2019-03-01T11:14:00.758Z,100115.23
2019-03-01T11:16:27.565Z,100118.44
2019-03-01T11:18:54.285Z,100114.48
2019-03-01T11:21:21.026Z,100115.36
2019-03-01T11:23:47.771Z,100122.77
2019-03-01T11:26:14.498Z,100111.97
2019-03-01T11:28:41.210Z,100118.23
2019-03-01T11:31:07.946Z,100120.00
2019-03-01T11:33:34.677Z,100124.48
2019-03-01T11:36:01.435Z,100122.24
2019-03-01T11:38:28.150Z,100123.91
2019-03-01T11:40:55.918Z,100129.88
2019-03-01T11:43:21.604Z,100125.05
2019-03-01T11:45:48.317Z,100128.66
2019-03-01T11:48:15.089Z,100125.98
2019-03-01T11:50:41.818Z,100125.31
2019-03-01T11:53:08.549Z,100124.00
2019-03-01T11:55:35.258Z,100119.61
2019-03-01T11:58:01.982Z,100119.44
2019-03-01T12:00:28.703Z,100122.11
2019-03-01T12:02:55.435Z,100119.82
2019-03-01T12:05:22.169Z,100119.38
2019-03-01T12:07:48.914Z,100127.75
2019-03-01T12:10:19.390Z,100133.88
2019-03-01T12:12:46.123Z,100125.34
2019-03-01T12:15:12.867Z,100119.23
2019-03-01T12:17:39.602Z,100125.95
2019-03-01T12:20:08.503Z,100130.12
2019-03-01T12:22:35.266Z,100130.83
2019-03-01T12:25:01.987Z,100127.95
2019-03-01T12:27:28.802Z,100126.52
2019-03-01T12:29:55.522Z,100122.64
2019-03-01T12:32:22.255Z,100124.39
2019-03-01T12:34:49.000Z,100120.04
2019-03-01T12:37:15.730Z,100128.02
2019-03-01T12:39:42.458Z,100123.47
2019-03-01T12:42:09.193Z,100127.28
2019-03-01T12:44:35.910Z,100126.31
2019-03-01T12:47:02.683Z,100121.42
2019-03-01T12:49:29.410Z,100119.72
2019-03-01T12:51:56.142Z,100115.52
2019-03-01T12:54:22.862Z,100107.43
2019-03-01T12:56:49.593Z,100106.62
2019-03-01T12:59:16.330Z,100110.86
2019-03-01T13:01:43.070Z,100117.38
2019-03-01T13:04:09.786Z,100112.14
2019-03-01T13:06:38.990Z,100114.27
2019-03-01T13:09:05.875Z,100119.48
2019-03-01T13:11:32.597Z,100107.26
2019-03-01T13:13:59.334Z,100107.92
2019-03-01T13:16:26.745Z,100100.72
2019-03-01T13:18:52.805Z,100103.98
2019-03-01T13:21:19.524Z,100103.98
2019-03-01T13:23:46.273Z,100106.61
2019-03-01T13:26:13.002Z,100102.05
2019-03-01T13:28:39.761Z,100104.97
2019-03-01T13:31:08.252Z,100108.24
2019-03-01T13:33:34.835Z,100115.74
2019-03-01T13:36:03.297Z,100121.78
2019-03-01T13:38:26.687Z,100117.72
2019-03-01T13:40:54.237Z,100125.69
2019-03-01T13:43:20.147Z,100131.13
2019-03-01T13:45:47.423Z,100136.47
2019-03-01T13:48:15.698Z,100134.55
2019-03-01T13:50:41.496Z,100145.52
2019-03-01T13:53:07.150Z,100143.48
2019-03-01T13:55:33.966Z,100148.38
2019-03-01T13:58:00.806Z,100149.02
2019-03-01T14:00:27.521Z,100156.98
2019-03-01T14:02:54.254Z,100164.39
2019-03-01T14:05:20.962Z,100166.48
2019-03-01T14:07:47.705Z,100177.48
2019-03-01T14:10:16.323Z,100174.30
2019-03-01T14:12:43.054Z,100177.75
2019-03-01T14:15:11.836Z,100180.51
2019-03-01T14:17:38.567Z,100183.22
2019-03-01T14:20:07.610Z,100186.81
2019-03-01T14:22:34.350Z,100188.99
2019-03-01T14:25:02.346Z,100185.63
2019-03-01T14:27:29.499Z,100179.39
2019-03-01T14:29:54.626Z,100181.82
2019-03-01T14:32:21.923Z,100182.41
2019-03-01T14:34:48.783Z,100177.02
2019-03-01T14:37:15.190Z,100182.95
2019-03-01T14:39:42.106Z,100184.62
2019-03-01T14:42:10.944Z,100185.05
2019-03-01T14:44:34.974Z,100190.89
2019-03-01T14:47:01.765Z,100198.00
2019-03-01T14:49:28.503Z,100196.63
2019-03-01T14:51:55.233Z,100198.28
2019-03-01T14:54:21.970Z,100201.91
2019-03-01T14:56:53.278Z,100196.31
2019-03-01T14:59:24.133Z,100208.69
2019-03-01T15:02:03.161Z,100203.63
2019-03-01T15:04:28.971Z,100209.16
2019-03-01T15:06:55.076Z,100216.11
2019-03-01T15:09:20.435Z,100218.83
2019-03-01T15:11:48.807Z,100225.91
2019-03-01T15:14:13.784Z,100225.02
2019-03-01T15:16:43.300Z,100220.08
2019-03-01T15:19:08.077Z,100228.23
2019-03-01T15:21:34.015Z,100232.59
2019-03-01T15:24:01.459Z,100234.95
2019-03-01T15:26:27.961Z,100236.16
2019-03-01T15:28:55.894Z,100236.08
2019-03-01T15:31:21.927Z,100236.31
2019-03-01T15:33:48.683Z,100242.83
2019-03-01T15:36:17.885Z,100245.24
2019-03-01T15:38:42.126Z,100251.60
2019-03-01T15:41:08.855Z,100245.94
2019-03-01T15:43:35.605Z,100251.92
2019-03-01T15:46:02.314Z,100258.01
2019-03-01T15:48:29.050Z,100250.87
2019-03-01T15:50:59.093Z,100245.45
2019-03-01T15:53:25.031Z,100252.39
2019-03-01T15:55:50.534Z,100243.09
2019-03-01T15:58:17.242Z,100250.56
2019-03-01T16:00:43.973Z,100255.56
2019-03-01T16:03:10.698Z,100259.89
2019-03-01T16:05:38.251Z,100268.70
2019-03-01T16:08:05.544Z,100269.73
2019-03-01T16:10:32.966Z,100271.34
2019-03-01T16:12:57.701Z,100277.34
2019-03-01T16:15:24.557Z,100290.64
2019-03-01T16:17:51.277Z,100288.11
2019-03-01T16:20:18.014Z,100284.03
2019-03-01T16:22:44.730Z,100290.95
2019-03-01T16:25:11.926Z,100288.53
2019-03-01T16:27:38.774Z,100292.58
2019-03-01T16:30:07.924Z,100303.58
2019-03-01T16:32:34.646Z,100295.94
2019-03-01T16:35:01.383Z,100305.77
2019-03-01T16:37:28.404Z,100302.73
2019-03-01T16:39:56.224Z,100301.67
2019-03-01T16:42:21.850Z,100297.34
2019-03-01T16:44:48.595Z,100300.80
2019-03-01T16:47:15.302Z,100308.33
2019-03-01T16:49:42.030Z,100302.85
2019-03-01T16:52:08.750Z,100303.47
2019-03-01T16:54:35.502Z,100304.86
2019-03-01T16:57:02.210Z,100302.50
2019-03-01T16:59:29.001Z,100308.47
2019-03-01T17:01:55.667Z,100310.98
2019-03-01T17:04:27.110Z,100319.69
2019-03-01T17:06:50.264Z,100328.73
2019-03-01T17:09:16.630Z,100330.45
2019-03-01T17:11:42.570Z,100335.56
2019-03-01T17:14:09.297Z,100343.22
2019-03-01T17:16:36.058Z,100345.36
2019-03-01T17:19:02.861Z,100344.38
2019-03-01T17:21:29.636Z,100349.02
2019-03-01T17:23:56.383Z,100354.70
2019-03-01T17:26:26.242Z,100359.21
2019-03-01T17:28:49.945Z,100366.24
2019-03-01T17:31:16.578Z,100367.03
2019-03-01T17:33:45.195Z,100365.94
2019-03-01T17:36:13.024Z,100371.55
2019-03-01T17:38:36.805Z,100376.13
2019-03-01T17:41:06.223Z,100388.34
2019-03-01T17:43:32.802Z,100388.63
2019-03-01T17:45:57.952Z,100393.73
2019-03-01T17:48:23.869Z,100395.19
2019-03-01T17:50:50.611Z,100409.43
2019-03-01T17:53:17.342Z,100413.76
2019-03-01T17:55:44.086Z,100415.76
2019-03-01T17:58:10.918Z,100418.65
2019-03-01T18:00:37.677Z,100417.23
2019-03-01T18:03:04.402Z,100417.94
2019-03-01T18:05:31.145Z,100429.59
2019-03-01T18:07:59.843Z,100425.70
2019-03-01T18:10:24.717Z,100432.30
2019-03-01T18:12:53.135Z,100435.59
2019-03-01T18:15:18.227Z,100436.58
2019-03-01T18:17:45.671Z,100444.00
2019-03-01T18:20:12.405Z,100445.77
2019-03-01T18:22:39.146Z,100450.61
2019-03-01T18:25:07.278Z,100452.25
2019-03-01T18:27:34.018Z,100449.73
2019-03-01T18:30:00.736Z,100457.30
2019-03-01T18:32:27.475Z,100472.02
2019-03-01T18:34:54.199Z,100468.27
2019-03-01T18:37:20.931Z,100476.95
2019-03-01T18:39:47.657Z,100476.82
2019-03-01T18:42:14.395Z,100472.59
2019-03-01T18:44:41.120Z,100478.66
2019-03-01T18:47:07.881Z,100478.56
2019-03-01T18:49:34.702Z,100485.17
2019-03-01T18:52:01.449Z,100488.97
2019-03-01T18:54:28.294Z,100484.41
2019-03-01T18:56:55.034Z,100484.64
2019-03-01T18:59:24.831Z,100487.33
2019-03-01T19:01:48.490Z,100486.94
2019-03-01T19:04:16.714Z,100494.37
2019-03-01T19:06:42.034Z,100497.22
2019-03-01T19:09:08.774Z,100498.60
2019-03-01T19:11:37.940Z,100507.80
2019-03-01T19:14:02.687Z,100514.02
2019-03-01T19:16:29.445Z,100511.17
2019-03-01T19:18:55.762Z,100514.55
2019-03-01T19:21:22.496Z,100515.67
2019-03-01T19:23:49.217Z,100526.05
2019-03-01T19:26:16.022Z,100523.34
2019-03-01T19:28:42.739Z,100531.69
2019-03-01T19:31:09.462Z,100531.98
2019-03-01T19:33:37.887Z,100524.03
2019-03-01T19:36:03.544Z,100534.48
2019-03-01T19:38:29.650Z,100529.53
2019-03-01T19:40:56.450Z,100526.58
2019-03-01T19:43:23.182Z,100527.07
2019-03-01T19:45:49.897Z,100534.30
2019-03-01T19:48:16.638Z,100542.02
2019-03-01T19:50:43.635Z,100536.63
2019-03-01T19:53:10.138Z,100532.08
2019-03-01T19:55:36.914Z,100529.80
2019-03-01T19:58:03.702Z,100525.22
2019-03-01T20:00:30.466Z,100526.73
2019-03-01T20:02:57.210Z,100527.25
2019-03-01T20:05:27.914Z,100522.76
2019-03-01T20:07:51.771Z,100528.20
2019-03-01T20:10:18.249Z,100533.30
2019-03-01T20:12:44.981Z,100531.66
2019-03-01T20:15:14.109Z,100526.81
2019-03-01T20:17:44.389Z,100527.98
2019-03-01T20:20:09.082Z,100521.50
2019-03-01T20:22:35.806Z,100528.84
2019-03-01T20:25:02.665Z,100530.61
2019-03-01T20:27:29.394Z,100536.02
2019-03-01T20:29:56.122Z,100536.48
2019-03-01T20:32:22.927Z,100538.70
2019-03-01T20:34:49.665Z,100545.40
2019-03-01T20:37:16.386Z,100550.78
2019-03-01T20:39:43.122Z,100549.61
2019-03-01T20:42:09.850Z,100551.85
2019-03-01T20:44:36.570Z,100549.83
2019-03-01T20:47:03.294Z,100555.36
2019-03-01T20:49:30.031Z,100558.58
2019-03-01T20:51:58.694Z,100559.75
2019-03-01T20:54:25.816Z,100559.37
2019-03-01T20:56:51.628Z,100556.43
2019-03-01T20:59:17.262Z,100555.17
2019-03-01T21:01:43.998Z,100549.13
2019-03-01T21:04:10.742Z,100551.12
2019-03-01T21:06:40.441Z,100556.43
2019-03-01T21:09:06.783Z,100560.22
2019-03-01T21:11:31.250Z,100564.95
2019-03-01T21:13:58.022Z,100563.63
2019-03-01T21:16:24.773Z,100574.72
2019-03-01T21:18:51.509Z,100573.89
2019-03-01T21:21:18.326Z,100573.75
2019-03-01T21:23:47.643Z,100572.11
2019-03-01T21:26:12.094Z,100580.48
2019-03-01T21:28:38.574Z,100573.05
2019-03-01T21:31:05.301Z,100581.05
2019-03-01T21:33:32.046Z,100578.00
2019-03-01T21:35:58.819Z,100574.94
2019-03-01T21:38:25.554Z,100573.30
2019-03-01T21:40:52.274Z,100570.93
2019-03-01T21:43:19.894Z,100571.63
2019-03-01T21:45:46.610Z,100570.59
2019-03-01T21:48:13.347Z,100573.31
2019-03-01T21:50:42.413Z,100570.59
2019-03-01T21:53:06.885Z,100580.88
2019-03-01T21:55:33.611Z,100569.97
2019-03-01T21:58:03.421Z,100579.06
2019-03-01T22:00:29.983Z,100574.92
2019-03-01T22:02:54.329Z,100577.41
2019-03-01T22:05:20.666Z,100583.64
2019-03-01T22:07:47.430Z,100593.66
2019-03-01T22:10:14.168Z,100597.77
2019-03-01T22:12:40.909Z,100602.13
2019-03-01T22:15:10.774Z,100594.86
2019-03-01T22:17:37.562Z,100597.42
2019-03-01T22:20:05.741Z,100600.83
2019-03-01T22:22:34.176Z,100602.84
2019-03-01T22:24:58.662Z,100593.92
2019-03-01T22:27:25.345Z,100597.89
2019-03-01T22:29:51.669Z,100604.52
2019-03-01T22:32:18.467Z,100604.16
2019-03-01T22:34:45.201Z,100601.69
2019-03-01T22:37:11.934Z,100606.77
2019-03-01T22:39:38.675Z,100601.81
2019-03-01T22:42:05.394Z,100602.87
2019-03-01T22:44:33.377Z,100600.52
2019-03-01T22:47:00.791Z,100596.85
2019-03-01T22:49:28.566Z,100589.67
2019-03-01T22:51:53.010Z,100589.34
2019-03-01T22:54:19.111Z,100590.52
2019-03-01T22:56:48.460Z,100595.83
2019-03-01T22:59:12.683Z,100590.16
2019-03-01T23:01:41.186Z,100594.76
2019-03-01T23:04:07.919Z,100597.23
2019-03-01T23:06:34.654Z,100590.41
2019-03-01T23:09:01.458Z,100592.06
2019-03-01T23:11:28.750Z,100593.92
2019-03-01T23:13:55.755Z,100599.09
2019-03-01T23:16:21.630Z,100591.00
2019-03-01T23:18:56.345Z,100595.23
2019-03-01T23:21:15.090Z,100601.59
2019-03-01T23:23:42.013Z,100597.72
2019-03-01T23:26:08.746Z,100597.94
2019-03-01T23:28:35.487Z,100607.48
2019-03-01T23:31:03.650Z,100605.36
2019-03-01T23:33:31.626Z,100608.55
2019-03-01T23:35:55.721Z,100613.14
2019-03-01T23:38:22.474Z,100602.18
2019-03-01T23:40:49.189Z,100615.84
2019-03-01T23:43:15.986Z,100613.59
2019-03-01T23:45:42.731Z,100613.84
2019-03-01T23:48:10.683Z,100619.50
2019-03-01T23:50:36.225Z,100622.77
2019-03-01T23:53:02.958Z,100613.37
2019-03-01T23:55:29.690Z,100615.38
2019-03-01T23:58:05.540Z,100618.20
